• Join FlightAware (Why Join?)
  • Login
  • US Flag 
05:57AM EDT


 

Airport Tracker/Info


-or-


 

Live Flight TrackerFlight Track Log ✈ DAL6091 ✈ 22-Jun-2013 ✈ KBUF - KDTW

Flight Track Log - Related Links

Times and Time Zones

All times are in EDT time to prevent confusion due to time zone crossing. See the DAL6091 flight status page for this flight to view local times or setup timezone preferences in your user account.

Time Position Orientation Groundspeed Altitude Reporting Facility
EDT Latitude Longitude Course Direction KTS MPH feet Rate Location/Type
08:24AM 42.9333 -78.7500 262° West 158 182 1,500  Level Buffalo TRACON
08:25AM 42.8833 -78.8333 231° Southwest 216 249 4,300 2,100 Climbing Buffalo TRACON
08:27AM 42.8686 -79.0253 264° West 257 296 8,800 2,100 Climbing Cleveland Center
08:28AM 42.8333 -79.2121 270° West  Level FlightAware Approximate
08:28AM 42.8614 -79.1161 264° West 249 287 10,800  Level Cleveland Center
08:29AM 42.8130 -79.3368 262° West  Level FlightAware Approximate
08:29AM 42.8461 -79.2211 259° West 266 306 12,100  Level Cleveland Center
08:30AM 42.8286 -79.3347 258° West 289 333 13,900 1,680 Climbing Cleveland Center
08:31AM 42.8111 -79.4511 258° West 310 357 15,500 1,500 Climbing Cleveland Center
08:32AM 42.7956 -79.5675 260° West 316 364 16,900 1,200 Climbing Cleveland Center
08:33AM 42.7756 -79.6894 257° West 316 364 18,000 540 Climbing Cleveland Center
08:34AM 42.7600 -79.8197 261° West 326 375 18,000  Level Cleveland Center
08:35AM 42.7503 -79.9556 264° West 356 410 18,000  Level Cleveland Center
08:36AM 42.7386 -80.0997 264° West 375 432 18,000  Level Cleveland Center
08:37AM 42.7347 -80.2328 268° West 375 432 18,000  Level Cleveland Center
08:38AM 42.7289 -80.3683 267° West 360 414 18,000  Level Cleveland Center
08:39AM 42.7228 -80.5069 267° West 360 414 18,000  Level Cleveland Center
08:40AM 42.7164 -80.6511 267° West 379 436 18,000  Level Cleveland Center
08:41AM 42.7100 -80.7978 267° West 385 443 18,000  Level Cleveland Center
08:42AM 42.7014 -80.9419 265° West 385 443 18,000  Level Cleveland Center
08:43AM 42.6842 -81.0858 261° West 391 450 18,000  Level Cleveland Center
08:44AM 42.6669 -81.2242 260° West 386 444 18,000  Level Cleveland Center
08:45AM 42.6492 -81.3681 261° West 386 444 18,000  Level Cleveland Center
08:46AM 42.6358 -81.4947 262° West 391 450 18,000  Level Cleveland Center
08:47AM 42.6178 -81.6411 261° West 392 451 18,000  Level Cleveland Center
08:48AM 42.6019 -81.7792 261° West 387 445 18,000  Level Cleveland Center
08:49AM 42.5836 -81.9197 260° West 387 445 18,000 -180 Level Cleveland Center
08:50AM 42.5653 -82.0633 260° West 387 445 17,700 -1,200 Descending Cleveland Center
08:51AM 42.5508 -82.2008 262° West 387 445 15,600 -2,160 Descending Cleveland Center
08:53AM 42.5317 -82.3808 262° West 348 400 13,000 -1,800 Descending Cleveland Center
08:53AM 42.5178 -82.4564 256° West 361 415 12,000 -660 Descending Cleveland Center
08:54AM 42.5017 -82.5603 258° West 324 373 11,900 -420 Descending Cleveland Center
08:55AM 42.4686 -82.6578 245° Southwest 297 342 11,200 -1,140 Descending Cleveland Center
08:56AM 42.4336 -82.7522 243° Southwest 286 329 9,700 -1,560 Descending Cleveland Center
08:57AM 42.4006 -82.8411 243° Southwest 275 316 8,100 -1,200 Descending Cleveland Center
08:58AM 42.4258 -82.9236 293° West 241 277 7,300 -600 Descending Cleveland Center
08:59AM 42.4619 -82.9925 305° West 219 252 7,000 -120 Descending Cleveland Center
09:00AM 42.4986 -83.0417 315° West 207 238 7,100 -360 Climbing Cleveland Center
09:01AM 42.5078 -83.1011 282° West 191 220 6,300 -540 Descending Cleveland Center
09:03AM 42.4628 -83.1558 222° Southwest 157 181 5,900 -480 Descending Cleveland Center
09:04AM 42.4222 -83.1878 210° Southwest 171 197 5,200 -840 Descending Cleveland Center
09:05AM 42.3778 -83.2197 208° Southwest 165 190 4,100 -960 Descending Cleveland Center
09:06AM 42.3356 -83.2489 207° Southwest 164 189 3,200 -900 Descending Cleveland Center